Time;durP1;ratioP1;P1;durP2;ratioP2;P2;SDS_P1;SDS_P2;PMS_P1;PMS_P2;Temp;Humidity;BMP_temperature;BMP_pressure;BME280_temperature;BME280_humidity;BME280_pressure;Samples;Min_cycle;Max_cycle;Signal;HPM_P1;HPM_P2
2021/11/02 00:02:11;;;;;;;0.98;0.60;;;;;;;7.90;89.34;94498.34;5072647;28;20148;-56
2021/11/02 00:04:38;;;;;;;0.60;0.60;;;;;;;7.73;90.37;94496.00;5072369;28;20110;-46
2021/11/02 00:07:05;;;;;;;1.23;0.70;;;;;;;7.46;91.87;94490.38;5072528;28;20171;-47
2021/11/02 00:09:35;;;;;;;1.90;1.00;;;;;;;7.46;92.43;94492.28;5070983;28;20132;-50
2021/11/02 00:12:03;;;;;;;1.70;1.00;;;;;;;7.43;91.91;94501.06;5071515;28;20051;-48
2021/11/02 00:14:30;;;;;;;1.60;0.85;;;;;;;7.31;92.72;94493.84;5061390;28;20051;-47
2021/11/02 00:17:41;;;;;;;1.98;0.70;;;;;;;7.23;93.31;94490.19;5069916;28;20036;-46
2021/11/02 00:19:48;;;;;;;0.90;0.63;;;;;;;7.28;93.30;94491.06;5068929;28;20428;-48
2021/11/02 00:22:16;;;;;;;1.10;0.68;;;;;;;7.61;92.90;94488.84;5071379;28;20056;-46
2021/11/02 00:27:23;;;;;;;1.42;0.70;;;;;;;7.77;89.94;94493.41;5072032;28;20041;-51
2021/11/02 00:29:52;;;;;;;0.90;0.60;;;;;;;7.59;91.17;94501.84;5070708;28;20051;-51
2021/11/02 00:32:19;;;;;;;0.80;0.60;;;;;;;7.63;90.90;94497.31;5071403;28;20380;-48
2021/11/02 00:34:46;;;;;;;1.17;0.50;;;;;;;7.49;91.42;94489.69;5071855;28;20056;-47
2021/11/02 00:37:14;;;;;;;0.73;0.45;;;;;;;7.39;92.61;94489.44;5070846;28;20043;-48
2021/11/02 00:39:41;;;;;;;1.20;0.60;;;;;;;7.41;92.23;94487.16;5070420;28;20044;-51
2021/11/02 00:42:08;;;;;;;0.50;0.50;;;;;;;7.41;91.42;94489.84;5071629;28;20090;-50
2021/11/02 00:44:36;;;;;;;0.70;0.50;;;;;;;7.50;92.05;94487.78;5060214;28;20048;-52
2021/11/02 00:47:05;;;;;;;0.65;0.50;;;;;;;7.41;91.60;94487.16;5069906;28;20486;-52
2021/11/02 00:49:32;;;;;;;0.73;0.60;;;;;;;7.45;92.02;94479.97;5071734;28;20417;-54
2021/11/02 00:51:59;;;;;;;0.90;0.50;;;;;;;7.62;90.36;94474.22;5071632;28;20119;-49
2021/11/02 00:54:26;;;;;;;0.93;0.65;;;;;;;7.45;90.70;94482.66;5069840;28;20040;-48
2021/11/02 00:56:53;;;;;;;1.08;0.55;;;;;;;7.37;91.88;94489.75;5071509;28;20049;-49
2021/11/02 00:59:20;;;;;;;1.38;0.90;;;;;;;7.30;92.34;94483.44;5071826;28;20494;-51
2021/11/02 01:01:47;;;;;;;1.13;0.73;;;;;;;7.29;92.31;94481.88;5071140;28;20048;-49
2021/11/02 01:04:15;;;;;;;0.73;0.43;;;;;;;7.19;92.46;94480.50;5070696;28;20041;-47
2021/11/02 01:06:42;;;;;;;0.90;0.50;;;;;;;7.20;92.71;94479.34;5071402;28;20044;-52
2021/11/02 01:09:09;;;;;;;0.90;0.60;;;;;;;7.23;92.75;94475.97;5071395;28;20532;-47
2021/11/02 01:11:39;;;;;;;0.73;0.52;;;;;;;7.23;94.30;94473.28;5064900;28;20557;-51
2021/11/02 01:14:06;;;;;;;2.05;0.60;;;;;;;7.20;94.45;94469.38;5063778;28;20139;-50
2021/11/02 01:16:34;;;;;;;0.98;0.68;;;;;;;7.24;93.44;94470.22;5059586;28;20119;-47
2021/11/02 01:19:02;;;;;;;1.60;0.80;;;;;;;7.17;94.26;94462.00;5054035;28;20128;-50
2021/11/02 01:21:31;;;;;;;2.53;1.30;;;;;;;7.18;94.45;94460.06;5069435;28;20055;-53
2021/11/02 01:23:58;;;;;;;2.03;0.77;;;;;;;7.15;93.89;94461.56;5069376;28;20464;-49
2021/11/02 01:26:26;;;;;;;0.70;0.60;;;;;;;7.15;93.63;94461.56;5083260;28;20075;-48
2021/11/02 01:28:53;;;;;;;1.70;0.68;;;;;;;7.24;93.47;94451.41;5070106;28;20068;-50
2021/11/02 01:31:20;;;;;;;1.00;0.65;;;;;;;7.32;92.37;94448.91;5069636;28;20047;-47
2021/11/02 01:33:47;;;;;;;1.17;0.70;;;;;;;7.19;93.61;94445.53;5056034;28;20037;-50
2021/11/02 01:36:16;;;;;;;0.90;0.57;;;;;;;7.16;93.75;94451.59;5055392;28;20036;-49
2021/11/02 01:38:48;;;;;;;0.85;0.60;;;;;;;7.07;94.39;94448.28;5054154;28;20131;-47
2021/11/02 01:41:18;;;;;;;2.97;0.85;;;;;;;6.98;94.87;94443.84;5070852;28;20127;-50
2021/11/02 01:43:47;;;;;;;2.35;0.80;;;;;;;7.09;94.14;94443.34;5067619;28;20048;-50
2021/11/02 01:46:32;;;;;;;0.82;0.80;;;;;;;7.09;93.48;94449.50;5069996;28;20064;-49
2021/11/02 01:49:01;;;;;;;0.98;0.70;;;;;;;7.07;93.24;94440.22;5086937;28;20070;-47
2021/11/02 01:51:31;;;;;;;1.98;0.80;;;;;;;7.24;92.57;94447.94;5083090;28;20094;-52
2021/11/02 01:54:02;;;;;;;0.93;0.70;;;;;;;7.15;92.75;94440.06;5066046;28;20444;-49
2021/11/02 01:56:30;;;;;;;1.20;0.70;;;;;;;7.12;93.46;94446.13;5077956;28;20063;-51
2021/11/02 01:59:02;;;;;;;3.47;0.93;;;;;;;7.03;93.56;94448.19;5053861;28;20045;-52
2021/11/02 02:02:07;;;;;;;0.93;0.70;;;;;;;7.12;92.93;94443.44;5090601;22;20052;-52
2021/11/02 02:04:48;;;;;;;1.30;0.70;;;;;;;7.17;92.51;94442.38;5084244;28;20040;-49
2021/11/02 02:07:41;;;;;;;1.33;0.90;;;;;;;7.19;93.24;94432.84;5080873;28;20447;-55
2021/11/02 02:10:45;;;;;;;2.10;0.93;;;;;;;6.94;93.56;94439.50;5076527;28;20051;-50
2021/11/02 02:13:18;;;;;;;1.23;0.85;;;;;;;6.85;94.16;94441.56;5066429;28;20182;-51
2021/11/02 02:16:09;;;;;;;0.95;0.80;;;;;;;6.79;94.21;94436.47;5049793;28;20048;-50
2021/11/02 02:18:52;;;;;;;1.50;0.80;;;;;;;6.78;94.92;94434.88;5084604;28;20453;-51
2021/11/02 02:21:38;;;;;;;1.38;1.00;;;;;;;6.76;94.56;94426.38;5089537;28;20528;-50
2021/11/02 02:24:58;;;;;;;1.55;0.80;;;;;;;6.93;92.50;94427.97;5049169;28;20033;-50
2021/11/02 02:27:44;;;;;;;2.25;1.45;;;;;;;6.81;93.20;94421.88;5061569;28;20425;-55
2021/11/02 02:30:16;;;;;;;1.73;1.00;;;;;;;6.88;93.59;94414.78;5077320;28;20040;-53
2021/11/02 02:32:50;;;;;;;1.42;1.10;;;;;;;6.85;92.66;94420.84;5068159;28;20032;-51
2021/11/02 02:35:22;;;;;;;1.75;0.77;;;;;;;6.79;93.39;94417.63;5089667;28;20044;-53
2021/11/02 02:37:52;;;;;;;2.05;0.90;;;;;;;6.79;93.00;94420.31;5076921;28;20529;-53
2021/11/02 02:40:20;;;;;;;2.40;0.90;;;;;;;6.81;92.65;94421.88;5051986;28;20532;-52
2021/11/02 02:42:49;;;;;;;1.38;0.80;;;;;;;6.86;91.96;94421.63;5081848;28;20089;-51
2021/11/02 02:45:18;;;;;;;2.47;1.00;;;;;;;6.72;93.10;94417.44;5071261;28;20079;-53
2021/11/02 02:47:49;;;;;;;2.60;0.80;;;;;;;6.69;93.63;94411.97;5072470;28;20051;-51
2021/11/02 02:50:19;;;;;;;2.78;1.00;;;;;;;6.73;93.48;94423.63;5093395;28;20043;-52
2021/11/02 02:52:51;;;;;;;2.97;0.93;;;;;;;6.99;92.04;94428.50;5079755;28;20033;-51
2021/11/02 02:55:20;;;;;;;3.47;1.13;;;;;;;7.30;90.04;94425.03;5059415;28;20036;-54
2021/11/02 02:57:48;;;;;;;1.20;0.70;;;;;;;7.08;90.55;94412.97;5093236;28;20062;-52
2021/11/02 03:00:17;;;;;;;1.75;0.90;;;;;;;6.92;90.88;94414.84;5094325;28;20040;-53
2021/11/02 03:02:46;;;;;;;2.33;0.95;;;;;;;6.94;91.46;94418.00;5069664;28;20064;-54
2021/11/02 03:05:18;;;;;;;1.55;0.80;;;;;;;6.79;91.48;94412.25;5052895;28;20041;-54
2021/11/02 03:07:46;;;;;;;2.78;0.82;;;;;;;6.71;91.73;94415.88;5088210;28;20520;-50
2021/11/02 03:10:14;;;;;;;1.52;0.60;;;;;;;6.63;92.34;94414.16;5094288;28;20101;-50
2021/11/02 03:12:47;;;;;;;3.35;0.95;;;;;;;6.73;91.69;94419.00;5087693;28;20040;-49
2021/11/02 03:18:26;;;;;;;2.88;0.80;;;;;;;6.82;90.85;94418.06;5073574;28;20040;-52
2021/11/02 03:49:03;;;;;;;1.55;0.70;;;;;;;6.81;89.32;94411.13;5064563;28;20504;-53
2021/11/02 04:22:46;;;;;;;1.52;0.98;;;;;;;7.11;86.74;94411.50;5072509;28;20036;-53
2021/11/02 05:06:41;;;;;;;1.75;0.77;;;;;;;7.31;84.52;94425.81;5067587;28;20040;-53
2021/11/02 05:49:08;;;;;;;2.25;0.70;;;;;;;6.51;87.12;94433.00;5067020;28;20045;-52
2021/11/02 05:59:30;;;;;;;2.33;0.80;;;;;;;6.26;89.30;94441.13;5070306;28;20517;-50
2021/11/02 06:27:58;;;;;;;3.78;0.93;;;;;;;6.27;89.28;94440.03;5078980;28;20040;-51
2021/11/02 06:33:20;;;;;;;3.85;1.08;;;;;;;6.44;89.13;94448.94;5068139;28;20112;-49
2021/11/02 06:36:00;;;;;;;1.90;1.00;;;;;;;6.30;89.42;94447.41;5060181;28;20101;-50
2021/11/02 07:19:43;;;;;;;3.85;1.02;;;;;;;7.28;86.36;94466.84;5045702;28;20054;-52
2021/11/02 07:27:59;;;;;;;4.93;1.20;;;;;;;7.61;84.76;94471.91;5073591;28;20044;-51
2021/11/02 08:47:09;;;;;;;2.55;0.93;;;;;;;8.05;82.10;94474.44;5064987;28;20044;-47
2021/11/02 08:49:43;;;;;;;1.00;0.65;;;;;;;8.01;81.45;94479.75;5065900;28;20047;-51
2021/11/02 08:52:10;;;;;;;1.55;0.90;;;;;;;8.03;81.64;94477.47;5081265;28;20420;-53
2021/11/02 08:54:37;;;;;;;3.95;1.52;;;;;;;8.01;81.97;94478.97;5058456;28;20045;-49
2021/11/02 08:57:04;;;;;;;1.60;0.60;;;;;;;8.07;81.16;94474.88;5065113;28;20124;-50
2021/11/02 08:59:35;;;;;;;1.02;0.70;;;;;;;8.33;81.00;94471.56;5068263;28;20037;-52
2021/11/02 09:02:07;;;;;;;2.28;0.70;;;;;;;8.38;80.10;94468.63;5068182;28;20426;-50
2021/11/02 09:04:40;;;;;;;3.20;0.80;;;;;;;8.83;78.13;94469.91;5069248;28;20036;-50
2021/11/02 09:07:11;;;;;;;1.98;0.90;;;;;;;8.66;77.24;94471.91;5065441;28;21909;-50
2021/11/02 09:09:40;;;;;;;2.20;0.65;;;;;;;8.94;76.09;94459.28;5090786;28;20045;-51
2021/11/02 09:12:09;;;;;;;1.25;0.70;;;;;;;8.70;77.81;94465.78;5065772;28;20105;-50
2021/11/02 09:14:38;;;;;;;3.40;0.65;;;;;;;8.52;78.31;94468.94;5068554;28;20068;-52
2021/11/02 09:17:08;;;;;;;2.22;0.82;;;;;;;8.75;77.02;94474.38;5066856;28;20044;-49
2021/11/02 09:19:36;;;;;;;2.92;0.57;;;;;;;8.94;75.97;94470.91;5065657;28;20040;-48
2021/11/02 09:22:10;;;;;;;5.35;0.82;;;;;;;8.87;74.83;94470.75;5063322;28;20056;-52
2021/11/02 09:24:42;;;;;;;1.52;0.60;;;;;;;8.97;75.52;94475.56;5064750;28;20551;-53
2021/11/02 09:27:14;;;;;;;2.95;1.02;;;;;;;8.66;76.71;94463.81;5068394;28;20044;-53
2021/11/02 09:29:41;;;;;;;1.90;0.98;;;;;;;8.70;74.18;94471.19;5065055;28;20110;-52
2021/11/02 09:32:09;;;;;;;4.22;0.80;;;;;;;8.60;74.71;94467.91;5064226;28;20119;-49
2021/11/02 09:34:36;;;;;;;2.92;1.55;;;;;;;8.64;75.24;94473.38;5065678;28;20051;-52
2021/11/02 09:37:18;;;;;;;3.80;0.85;;;;;;;8.73;74.25;94462.38;5066880;28;20080;-54
2021/11/02 09:39:49;;;;;;;1.40;0.70;;;;;;;8.76;73.51;94464.38;5066224;28;20524;-53
2021/11/02 09:42:34;;;;;;;6.03;1.92;;;;;;;8.85;73.50;94467.63;5071132;28;20117;-50
2021/11/02 09:45:20;;;;;;;3.05;0.80;;;;;;;8.86;72.21;94463.78;5068695;28;20063;-50
2021/11/02 09:48:12;;;;;;;3.85;0.50;;;;;;;8.91;71.13;94454.66;5064597;28;20066;-54
2021/11/02 09:51:20;;;;;;;3.28;0.70;;;;;;;9.05;73.17;94461.06;5058915;28;20045;-54
2021/11/02 09:54:04;;;;;;;2.60;0.60;;;;;;;9.31;70.91;94467.69;5062808;28;20466;-53
2021/11/02 09:56:46;;;;;;;1.92;0.70;;;;;;;9.13;71.56;94462.75;5066048;28;20044;-54
2021/11/02 09:59:44;;;;;;;1.92;0.65;;;;;;;9.60;69.81;94453.50;5082501;22;20045;31
2021/11/02 10:02:16;;;;;;;3.65;0.65;;;;;;;9.42;70.66;94457.06;4985833;28;20479;-48
2021/11/02 10:05:27;;;;;;;3.92;0.60;;;;;;;9.50;69.10;94447.94;4995142;28;20365;-49
2021/11/02 10:08:21;;;;;;;1.90;0.80;;;;;;;9.59;69.76;94449.25;4984870;28;20688;-51
2021/11/02 10:11:07;;;;;;;;;;;;;;;9.41;68.17;94456.28;4993908;28;20165;-51
2021/11/02 10:13:51;;;;;;;2.13;0.60;;;;;;;9.34;69.52;94443.44;5006446;28;20016;-48
2021/11/02 10:16:31;;;;;;;1.02;0.60;;;;;;;9.60;67.37;94441.94;5009465;28;20567;-48
2021/11/02 10:19:32;;;;;;;2.45;0.63;;;;;;;9.52;67.60;94443.75;5008297;28;20072;-48
2021/11/02 10:22:18;;;;;;;1.98;1.02;;;;;;;9.58;67.99;94439.59;5008886;28;20491;-53
2021/11/02 10:25:03;;;;;;;4.10;1.30;;;;;;;9.85;66.08;94445.03;5008900;28;20125;-48
2021/11/02 10:27:45;;;;;;;3.47;0.77;;;;;;;9.78;67.02;94443.00;5018827;28;20611;-50
2021/11/02 10:30:23;;;;;;;3.38;1.23;;;;;;;9.53;64.59;94442.59;5006901;28;20445;-49
2021/11/02 10:32:53;;;;;;;1.95;0.60;;;;;;;9.70;64.19;94452.13;5006426;28;20046;-50
2021/11/02 10:35:48;;;;;;;1.83;0.50;;;;;;;9.74;64.95;94447.56;5005467;28;20112;-53
2021/11/02 10:38:26;;;;;;;3.63;0.77;;;;;;;10.03;63.76;94443.34;5007139;28;20046;-51
2021/11/02 10:40:58;;;;;;;2.72;1.25;;;;;;;9.95;62.87;94441.69;5003265;28;20077;-55
2021/11/02 10:43:47;;;;;;;0.98;0.43;;;;;;;9.78;64.90;94442.19;5020838;28;20050;-50
2021/11/02 10:46:15;;;;;;;1.92;0.70;;;;;;;9.91;63.72;94440.88;5008402;28;20065;-53
2021/11/02 10:48:47;;;;;;;2.92;0.60;;;;;;;9.98;63.29;94440.19;5006859;28;20049;-53
2021/11/02 10:51:39;;;;;;;1.38;0.40;;;;;;;9.95;62.40;94439.00;5006443;28;20043;-51
2021/11/02 10:54:19;;;;;;;2.72;0.60;;;;;;;10.28;61.96;94442.94;5020603;28;20046;-50
2021/11/02 10:57:25;;;;;;;2.15;0.60;;;;;;;10.41;61.10;94438.88;5006033;28;20145;-51
2021/11/02 11:00:03;;;;;;;2.42;0.90;;;;;;;10.70;60.41;94441.91;4989318;28;20132;-53
2021/11/02 11:02:32;;;;;;;1.75;0.70;;;;;;;10.98;59.18;94436.03;5026021;28;20057;-54
2021/11/02 11:05:01;;;;;;;2.15;0.55;;;;;;;11.12;59.35;94430.00;5027623;28;20144;-55
2021/11/02 11:07:40;;;;;;;5.82;1.75;;;;;;;11.07;58.81;94433.03;5006514;28;20045;-51
2021/11/02 11:10:12;;;;;;;0.60;0.45;;;;;;;10.96;60.83;94439.13;5021126;28;20056;-50
2021/11/02 11:12:48;;;;;;;0.87;0.40;;;;;;;10.87;57.84;94441.31;5026132;28;20040;-50
2021/11/02 11:15:15;;;;;;;1.95;0.60;;;;;;;10.62;58.50;94440.25;5027822;28;20294;-51
2021/11/02 11:17:50;;;;;;;2.50;0.70;;;;;;;10.62;58.46;94441.03;5024283;28;20045;-51
2021/11/02 11:20:19;;;;;;;2.25;0.60;;;;;;;11.05;58.39;94451.56;5026039;28;20156;-50
2021/11/02 11:22:50;;;;;;;1.98;0.60;;;;;;;10.93;58.29;94445.25;5026815;28;20049;-51
2021/11/02 11:25:51;;;;;;;3.95;0.85;;;;;;;10.64;59.49;94441.47;5021149;28;20123;-48
2021/11/02 11:28:19;;;;;;;2.50;0.60;;;;;;;10.53;60.13;94449.44;5001168;28;20049;-51
2021/11/02 11:30:48;;;;;;;1.20;0.50;;;;;;;10.52;60.11;94450.56;5022806;28;20076;-48
2021/11/02 11:33:18;;;;;;;5.85;0.77;;;;;;;10.45;59.47;94447.78;5023149;28;20040;-50
2021/11/02 11:35:49;;;;;;;2.17;0.75;;;;;;;10.43;60.31;94441.19;5024680;28;20049;-46
2021/11/02 11:38:17;;;;;;;4.95;0.50;;;;;;;10.41;61.50;94436.16;5024010;28;20396;-51
2021/11/02 11:40:45;;;;;;;1.45;0.50;;;;;;;10.60;60.79;94435.25;5024982;28;20038;-49
2021/11/02 11:43:14;;;;;;;3.20;1.00;;;;;;;10.50;60.78;94447.47;5025743;28;20063;-50
2021/11/02 11:45:46;;;;;;;3.28;0.60;;;;;;;10.25;61.88;94444.41;5025442;28;20040;-47
2021/11/02 11:48:21;;;;;;;3.15;0.73;;;;;;;10.37;61.26;94454.28;5020092;28;20034;-49
2021/11/02 11:50:55;;;;;;;1.90;0.60;;;;;;;10.19;63.47;94466.72;5026900;28;20413;-51
2021/11/02 11:53:24;;;;;;;4.80;1.02;;;;;;;9.85;67.27;94469.34;5022162;28;20045;-48
2021/11/02 11:56:01;;;;;;;2.38;0.68;;;;;;;9.49;72.02;94468.78;5023267;28;20072;-54
2021/11/02 11:58:30;;;;;;;1.77;0.63;;;;;;;9.25;73.50;94466.41;5022519;28;20566;-51
2021/11/02 12:01:24;;;;;;;1.92;0.63;;;;;;;9.19;74.08;94467.84;5023470;28;20092;-49
2021/11/02 12:04:09;;;;;;;;;;;;;;;9.24;74.36;94467.56;5026274;28;20042;-48
2021/11/02 12:06:47;;;;;;;3.78;0.75;;;;;;;9.29;75.73;94467.25;5028060;28;19927;-47
2021/11/02 12:09:20;;;;;;;2.70;0.80;;;;;;;9.51;75.52;94471.88;5024579;28;20038;-50
2021/11/02 12:11:48;;;;;;;2.83;0.60;;;;;;;9.51;73.68;94466.47;5028214;28;20064;-47
2021/11/02 12:14:23;;;;;;;2.08;0.60;;;;;;;9.53;72.59;94469.59;5023447;28;20415;-52
2021/11/02 12:16:51;;;;;;;1.35;0.60;;;;;;;9.74;70.82;94454.88;5028277;28;20128;-47
2021/11/02 12:19:38;;;;;;;2.83;0.70;;;;;;;9.67;68.64;94462.88;5030933;28;20103;-47
2021/11/02 12:22:12;;;;;;;1.70;0.60;;;;;;;9.82;68.20;94459.25;5009108;28;20653;-50
2021/11/02 12:24:44;;;;;;;2.33;1.33;;;;;;;9.80;67.61;94466.94;5031041;28;20479;-51
2021/11/02 12:27:19;;;;;;;1.35;0.52;;;;;;;9.66;68.59;94461.31;5018151;28;20467;-52
2021/11/02 12:29:48;;;;;;;2.35;0.60;;;;;;;9.95;67.47;94465.25;5026362;28;20140;-53
2021/11/02 12:32:18;;;;;;;2.58;0.70;;;;;;;10.17;66.71;94458.19;5030133;28;20164;-50
2021/11/02 12:34:57;;;;;;;1.67;0.65;;;;;;;10.07;67.89;94454.19;5027030;28;20033;-48
2021/11/02 12:37:26;;;;;;;1.17;0.60;;;;;;;10.29;66.22;94461.50;5010301;28;20048;-53
2021/11/02 12:39:53;;;;;;;2.45;0.70;;;;;;;10.15;66.00;94445.06;5018821;28;20038;-47
2021/11/02 12:42:36;;;;;;;2.58;1.27;;;;;;;9.98;67.25;94456.41;5021093;28;20076;-47
2021/11/02 12:45:03;;;;;;;2.42;0.98;;;;;;;9.79;69.30;94457.28;5022974;28;20033;-51
2021/11/02 12:47:31;;;;;;;1.15;0.88;;;;;;;9.78;69.40;94471.91;5026927;28;20045;-53
2021/11/02 12:50:03;;;;;;;1.67;0.65;;;;;;;9.88;68.19;94463.22;5031093;28;20107;-55
2021/11/02 12:52:33;;;;;;;3.33;0.55;;;;;;;9.75;69.23;94464.53;5027681;28;20136;-48
2021/11/02 12:55:08;;;;;;;3.70;0.60;;;;;;;10.01;68.32;94466.50;5030575;28;20045;-48
2021/11/02 12:57:38;;;;;;;2.65;0.70;;;;;;;9.79;68.25;94459.97;5011916;28;20079;-49
2021/11/02 13:00:18;;;;;;;0.90;0.47;;;;;;;9.73;69.33;94459.50;5024266;28;20077;-51
2021/11/02 13:02:55;;;;;;;1.80;0.40;;;;;;;9.90;68.61;94469.00;5029942;28;20041;-47
2021/11/02 13:05:28;;;;;;;0.50;0.50;;;;;;;9.77;68.42;94456.84;5029723;28;20104;-52
2021/11/02 13:08:08;;;;;;;0.60;0.30;;;;;;;9.83;67.69;94464.28;5031705;28;20072;-46
2021/11/02 13:10:40;;;;;;;4.45;2.15;;;;;;;9.93;66.96;94454.00;5030061;28;20466;-51
2021/11/02 13:13:15;;;;;;;2.47;0.57;;;;;;;9.81;67.30;94453.09;5030409;28;20514;-50
2021/11/02 13:15:51;;;;;;;1.25;0.50;;;;;;;9.66;68.23;94456.69;5027588;28;20046;-52
2021/11/02 13:18:33;;;;;;;1.67;0.50;;;;;;;9.55;69.51;94450.34;5030552;28;20438;-50
2021/11/02 13:21:29;;;;;;;1.67;0.47;;;;;;;9.77;67.37;94449.53;5028602;28;20053;-47
2021/11/02 13:24:03;;;;;;;2.28;0.40;;;;;;;9.77;68.51;94454.94;5020728;28;20128;-52
2021/11/02 13:26:32;;;;;;;0.63;0.30;;;;;;;9.89;67.70;94445.06;5027287;28;20034;-52
2021/11/02 13:29:17;;;;;;;1.30;0.45;;;;;;;9.70;68.05;94459.44;5021267;28;20495;-49
2021/11/02 13:31:49;;;;;;;2.10;0.50;;;;;;;9.98;67.63;94459.88;5024165;28;20120;-48
2021/11/02 13:34:33;;;;;;;4.30;0.50;;;;;;;9.97;66.97;94458.31;5024056;28;20054;-50
2021/11/02 13:37:07;;;;;;;1.20;0.52;;;;;;;9.98;67.12;94451.00;5024403;28;20132;-52
2021/11/02 13:39:55;;;;;;;2.17;0.50;;;;;;;9.89;67.38;94458.59;5025576;28;20172;-51
2021/11/02 13:42:43;;;;;;;2.00;0.60;;;;;;;9.72;68.17;94457.19;5025541;28;20069;-50
2021/11/02 13:45:12;;;;;;;1.77;0.60;;;;;;;9.96;66.26;94455.97;4996977;28;20053;-51
2021/11/02 13:47:41;;;;;;;4.40;0.50;;;;;;;9.92;66.55;94458.63;5029604;28;20403;-50
2021/11/02 13:50:09;;;;;;;1.10;0.47;;;;;;;9.76;66.27;94461.47;5026621;28;20080;-50
2021/11/02 13:52:36;;;;;;;2.38;0.40;;;;;;;9.74;67.26;94460.28;5021499;28;20136;-50
2021/11/02 13:55:04;;;;;;;0.43;0.35;;;;;;;9.79;67.25;94465.38;4994210;28;20065;-50
2021/11/02 13:57:31;;;;;;;2.65;0.32;;;;;;;9.72;65.98;94460.66;5025818;28;20219;-52
2021/11/02 13:59:58;;;;;;;0.65;0.30;;;;;;;9.93;65.00;94459.41;5026939;28;20060;-53
2021/11/02 14:02:27;;;;;;;0.30;0.30;;;;;;;9.76;65.59;94463.41;5023231;28;20041;-50
2021/11/02 14:04:54;;;;;;;0.75;0.45;;;;;;;10.07;65.01;94463.09;5026346;28;20073;-52
2021/11/02 14:07:29;;;;;;;0.90;0.38;;;;;;;10.18;64.48;94455.13;5025506;28;20059;-53
2021/11/02 14:10:03;;;;;;;3.83;0.40;;;;;;;10.21;64.34;94456.34;5023412;28;20069;-51
2021/11/02 14:12:42;;;;;;;0.70;0.50;;;;;;;10.22;63.97;94452.47;5024480;28;20487;-48
2021/11/02 14:15:12;;;;;;;0.88;0.45;;;;;;;10.12;64.37;94455.81;5022261;28;20041;-48
2021/11/02 14:17:51;;;;;;;0.60;0.35;;;;;;;9.99;65.75;94453.31;5026972;28;20037;-50
2021/11/02 14:20:41;;;;;;;3.60;1.13;;;;;;;9.93;65.43;94465.59;5025136;28;20045;-50
2021/11/02 14:23:32;;;;;;;0.88;0.50;;;;;;;10.04;64.95;94463.84;5022165;28;20832;-48
2021/11/02 14:26:23;;;;;;;0.93;0.40;;;;;;;10.06;64.08;94460.75;5008434;28;20503;-51
2021/11/02 14:28:54;;;;;;;0.55;0.40;;;;;;;10.03;63.03;94458.78;5027589;28;20053;-53
2021/11/02 14:31:40;;;;;;;0.22;0.22;;;;;;;10.09;62.45;94468.13;5024644;28;20041;-49
2021/11/02 14:34:32;;;;;;;0.43;0.38;;;;;;;10.00;62.41;94457.59;5024749;28;20060;-50
2021/11/02 14:37:17;;;;;;;1.80;0.40;;;;;;;9.84;63.50;94449.63;5001908;28;20064;-51
2021/11/02 14:39:55;;;;;;;0.47;0.45;;;;;;;9.95;63.13;94454.44;5022027;28;20046;-51
2021/11/02 14:42:43;;;;;;;3.13;0.52;;;;;;;9.73;63.29;94454.09;5025184;28;20156;-50
2021/11/02 14:45:12;;;;;;;0.40;0.30;;;;;;;9.76;63.50;94447.97;5025769;28;20045;-54
2021/11/02 14:47:39;;;;;;;0.80;0.40;;;;;;;9.70;64.18;94448.66;5031861;28;20046;-52
2021/11/02 14:50:28;;;;;;;0.75;0.40;;;;;;;9.94;63.63;94455.56;5031037;28;20578;-52
2021/11/02 14:53:27;;;;;;;0.40;0.40;;;;;;;10.00;63.00;94462.97;5030917;28;20033;-49
2021/11/02 14:55:56;;;;;;;0.60;0.50;;;;;;;9.80;63.65;94459.59;5029670;28;20045;-52
2021/11/02 14:58:38;;;;;;;1.00;0.82;;;;;;;9.82;64.16;94453.84;5033114;28;20072;-51
2021/11/02 15:01:13;;;;;;;1.13;0.60;;;;;;;9.75;64.40;94446.44;5003920;28;20041;-50
2021/11/02 15:03:54;;;;;;;1.25;0.60;;;;;;;9.93;64.25;94459.41;5023237;28;20049;-50
2021/11/02 15:06:47;;;;;;;0.50;0.50;;;;;;;9.89;64.05;94456.66;5028412;28;20463;-52
2021/11/02 15:09:17;;;;;;;0.70;0.50;;;;;;;9.76;64.00;94461.47;5027433;28;20047;-52
2021/11/02 15:11:45;;;;;;;1.80;0.60;;;;;;;9.72;64.80;94457.19;5025315;28;20038;-50
2021/11/02 15:14:18;;;;;;;4.00;0.40;;;;;;;9.94;64.07;94461.72;5003150;28;20415;-51
2021/11/02 15:16:53;;;;;;;1.38;0.50;;;;;;;9.71;64.90;94466.41;5022950;28;20582;-53
2021/11/02 15:19:26;;;;;;;0.82;0.50;;;;;;;9.90;64.84;94466.31;5026201;28;20100;-53
2021/11/02 15:21:54;;;;;;;2.85;0.47;;;;;;;9.85;65.04;94474.75;5027959;28;20487;-48
2021/11/02 15:24:23;;;;;;;1.30;0.60;;;;;;;9.81;65.30;94484.69;5023742;28;20045;-47
2021/11/02 15:27:00;;;;;;;1.77;0.85;;;;;;;9.80;64.84;94473.09;5028479;28;20041;-54
2021/11/02 15:29:34;;;;;;;0.55;0.50;;;;;;;9.58;65.42;94480.09;5028446;28;20116;-48
2021/11/02 15:32:20;;;;;;;0.98;0.60;;;;;;;9.70;65.58;94476.44;5027027;28;20591;-53
2021/11/02 15:34:52;;;;;;;3.88;0.88;;;;;;;9.69;65.71;94468.69;5027765;28;20116;-49
2021/11/02 15:37:31;;;;;;;3.13;0.80;;;;;;;9.73;66.43;94488.44;5027597;28;20498;-51
2021/11/02 15:40:03;;;;;;;0.60;0.60;;;;;;;9.98;64.91;94484.19;5027036;28;20132;-51
2021/11/02 15:42:41;;;;;;;2.92;1.00;;;;;;;9.81;65.73;94484.69;5024760;28;20045;-50
2021/11/02 15:45:32;;;;;;;3.35;1.05;;;;;;;10.12;64.72;94482.84;5022646;28;20410;-47
2021/11/02 15:48:04;;;;;;;4.38;2.72;;;;;;;9.91;65.15;94502.22;5028874;28;20080;-48
2021/11/02 15:50:31;;;;;;;1.60;1.20;;;;;;;9.85;66.09;94496.34;5028255;28;20065;-47
2021/11/02 15:53:02;;;;;;;2.53;1.00;;;;;;;9.81;65.76;94498.19;5027202;28;20048;-56
2021/11/02 15:55:31;;;;;;;2.67;0.82;;;;;;;9.74;66.21;94506.97;5030685;28;20047;-47
2021/11/02 15:58:02;;;;;;;3.58;0.75;;;;;;;9.80;66.59;94515.56;5014962;28;20140;-50
2021/11/02 16:00:31;;;;;;;3.38;0.80;;;;;;;9.98;65.71;94513.94;5029487;28;20175;-50
2021/11/02 16:02:59;;;;;;;1.20;0.80;;;;;;;9.92;66.40;94518.06;5023291;28;20049;-47
2021/11/02 16:05:28;;;;;;;2.15;1.17;;;;;;;9.53;67.86;94520.91;5027167;28;20041;-49
2021/11/02 16:08:00;;;;;;;1.73;0.90;;;;;;;9.35;68.59;94522.50;5028743;28;20103;-47
2021/11/02 16:10:29;;;;;;;2.42;1.02;;;;;;;9.26;68.95;94519.25;5025418;28;20045;-47
2021/11/02 16:13:02;;;;;;;2.10;1.00;;;;;;;9.09;69.68;94521.25;5007018;28;20056;-50
2021/11/02 16:15:33;;;;;;;2.10;1.13;;;;;;;9.12;69.37;94514.38;5025717;28;20042;-47
2021/11/02 16:18:24;;;;;;;2.75;1.15;;;;;;;9.01;69.43;94522.28;5006553;28;20048;-47
2021/11/02 16:20:54;;;;;;;2.97;1.48;;;;;;;8.98;69.75;94523.00;5026162;28;20087;-47
2021/11/02 16:23:24;;;;;;;3.67;1.20;;;;;;;9.02;69.65;94528.44;5024257;28;20055;-50
2021/11/02 16:25:59;;;;;;;5.53;1.30;;;;;;;8.95;69.80;94523.69;5024782;28;20114;-52
2021/11/02 16:28:31;;;;;;;2.72;1.00;;;;;;;8.92;70.25;94526.31;5025668;28;20494;-50
2021/11/02 16:31:02;;;;;;;3.60;1.15;;;;;;;9.24;68.76;94533.13;5027194;28;20128;-46
2021/11/02 16:33:39;;;;;;;1.70;1.10;;;;;;;9.24;68.19;94530.41;5024052;28;20059;-53
2021/11/02 16:36:24;;;;;;;1.65;1.00;;;;;;;9.17;68.39;94537.59;5024010;28;20034;-50
2021/11/02 16:38:56;;;;;;;1.92;0.90;;;;;;;9.02;68.52;94540.00;5022825;28;20779;-48
2021/11/02 16:41:43;;;;;;;1.90;0.93;;;;;;;9.28;68.23;94538.56;5008835;28;20049;-50
2021/11/02 16:44:13;;;;;;;1.17;0.70;;;;;;;9.34;66.97;94547.94;5024755;28;20669;-51
2021/11/02 16:46:46;;;;;;;3.83;1.10;;;;;;;9.23;67.77;94542.34;5030930;28;20037;-49
2021/11/02 16:49:22;;;;;;;2.13;1.00;;;;;;;9.44;66.67;94535.78;5027225;28;20086;-47
2021/11/02 16:51:55;;;;;;;1.90;0.90;;;;;;;9.23;67.40;94536.97;5021517;28;20046;-47
2021/11/02 16:54:25;;;;;;;2.55;0.98;;;;;;;9.06;69.22;94546.25;5023552;28;20068;-50
2021/11/02 16:57:17;;;;;;;1.67;0.88;;;;;;;8.95;68.60;94539.88;5030003;28;20084;-46
2021/11/02 16:59:54;;;;;;;1.92;1.02;;;;;;;8.94;69.47;94543.72;5023861;28;20049;-50
2021/11/02 17:02:32;;;;;;;3.63;1.00;;;;;;;8.95;68.95;94552.59;5022601;28;20128;-48
2021/11/02 17:05:16;;;;;;;2.75;1.10;;;;;;;8.79;69.84;94550.72;5023563;28;20045;-49
2021/11/02 17:08:02;;;;;;;3.50;2.20;;;;;;;8.87;69.38;94554.34;5007505;28;20580;-48
2021/11/02 17:10:48;;;;;;;3.40;1.50;;;;;;;8.72;70.18;94555.22;5026270;28;20495;-46
2021/11/02 17:13:25;;;;;;;2.40;1.20;;;;;;;8.71;70.16;94559.03;5019962;28;20495;-51
2021/11/02 17:15:59;;;;;;;3.10;1.20;;;;;;;8.65;70.05;94566.63;5028186;28;20041;-55
2021/11/02 17:19:01;;;;;;;3.00;1.38;;;;;;;8.54;71.27;94574.47;5027092;28;20425;-50
2021/11/02 17:21:35;;;;;;;1.50;0.80;;;;;;;8.54;70.91;94582.56;5024893;28;20133;-52
2021/11/02 17:24:06;;;;;;;1.73;1.08;;;;;;;8.53;71.01;94574.84;5007620;28;20494;-54
2021/11/02 17:26:36;;;;;;;3.60;1.40;;;;;;;8.41;71.44;94583.81;5025066;28;20060;-51